Time;durP1;ratioP1;P1;durP2;ratioP2;P2;SDS_P1;SDS_P2;PMS_P1;PMS_P2;Temp;Humidity;BMP_temperature;BMP_pressure;BME280_temperature;BME280_humidity;BME280_pressure;Samples;Min_cycle;Max_cycle;Signal;HPM_P1;HPM_P2
2022/08/06 00:01:10;;;;;;;;;;;17.20;95.60;;;;;;5108398;28;19916;-74
2022/08/06 00:03:36;;;;;;;;;;;17.20;95.80;;;;;;5111321;28;20006;-74
2022/08/06 00:06:02;;;;;;;;;;;17.20;96.00;;;;;;5107607;28;19915;-74
2022/08/06 00:08:28;;;;;;;;;;;17.30;96.00;;;;;;5108833;28;20284;-74
2022/08/06 00:10:54;;;;;;;;;;;17.20;96.10;;;;;;5103848;28;19926;-74
2022/08/06 00:13:20;;;;;;;;;;;17.20;96.40;;;;;;5111135;28;19912;-74
2022/08/06 00:15:46;;;;;;;;;;;17.10;97.20;;;;;;5108827;28;20006;-74
2022/08/06 00:18:12;;;;;;;;;;;17.10;96.80;;;;;;5108067;28;19919;-75
2022/08/06 00:20:38;;;;;;;;;;;17.00;97.10;;;;;;5105223;28;19915;-74
2022/08/06 00:23:04;;;;;;;;;;;17.00;97.30;;;;;;5109574;28;20280;-74
2022/08/06 00:25:30;;;;;;;;;;;16.90;97.40;;;;;;5111246;28;19920;-74
2022/08/06 00:27:56;;;;;;;;;;;16.90;97.80;;;;;;5112188;28;19999;-74
2022/08/06 00:30:22;;;;;;;;;;;16.80;98.10;;;;;;5108332;28;20210;-74
2022/08/06 00:32:49;;;;;;;;;;;16.60;98.50;;;;;;5105820;28;19916;-75
2022/08/06 00:35:15;;;;;;;;;;;16.60;98.90;;;;;;5110414;28;19927;-76
2022/08/06 00:37:41;;;;;;;;;;;16.50;99.20;;;;;;5110672;28;20359;-75
2022/08/06 00:40:07;;;;;;;;;;;16.60;99.50;;;;;;5101379;28;19922;-74
2022/08/06 00:42:33;;;;;;;;;;;16.50;99.80;;;;;;5105002;28;20249;-74
2022/08/06 00:45:00;;;;;;;;;;;16.40;99.90;;;;;;5108753;28;19918;-74
2022/08/06 00:47:26;;;;;;;;;;;16.40;99.90;;;;;;5111243;28;19919;-74
2022/08/06 00:49:52;;;;;;;;;;;16.30;99.90;;;;;;5105922;28;19912;-74
2022/08/06 00:52:18;;;;;;;;;;;16.30;99.90;;;;;;5105976;28;19923;-74
2022/08/06 00:54:44;;;;;;;;;;;16.30;99.90;;;;;;5104946;28;20011;-74
2022/08/06 00:57:10;;;;;;;;;;;16.20;99.90;;;;;;5109581;28;19911;-74
2022/08/06 00:59:36;;;;;;;;;;;16.10;99.90;;;;;;5090576;28;19992;-74
2022/08/06 01:02:02;;;;;;;;;;;16.20;99.90;;;;;;5100521;28;20277;-74
2022/08/06 01:04:28;;;;;;;;;;;16.20;99.90;;;;;;5111522;28;19924;-74
2022/08/06 01:06:54;;;;;;;;;;;16.20;99.90;;;;;;5109217;28;19911;-74
2022/08/06 01:09:20;;;;;;;;;;;16.30;99.90;;;;;;5111380;28;19969;-74
2022/08/06 01:11:46;;;;;;;;;;;16.20;99.90;;;;;;5106323;28;19912;-74
2022/08/06 01:14:12;;;;;;;;;;;16.30;99.90;;;;;;5109449;28;20003;-74
2022/08/06 01:16:41;;;;;;;;;;;16.30;99.90;;;;;;5113397;28;19923;-74
2022/08/06 01:19:35;;;;;;;;;;;16.30;99.90;;;;;;5106127;28;19919;-74
2022/08/06 01:22:01;;;;;;;;;;;16.30;99.90;;;;;;5114012;28;19911;-74
2022/08/06 01:24:30;;;;;;;;;;;16.40;99.90;;;;;;5111483;28;20472;-74
2022/08/06 01:27:03;;;;;;;;;;;16.40;99.90;;;;;;5114254;28;19927;-75
2022/08/06 01:29:32;;;;;;;;;;;16.40;99.90;;;;;;5113264;28;19911;-74
2022/08/06 01:31:58;;;;;;;;;;;16.30;99.90;;;;;;5109431;28;19916;-74
2022/08/06 01:34:27;;;;;;;;;;;16.30;99.90;;;;;;5109125;28;20276;-76
2022/08/06 01:36:56;;;;;;;;;;;16.30;99.90;;;;;;5113000;28;20264;-74
2022/08/06 01:39:24;;;;;;;;;;;16.30;99.90;;;;;;5107423;28;19916;-74
2022/08/06 01:41:51;;;;;;;;;;;16.20;99.90;;;;;;5107556;28;20391;-74
2022/08/06 01:44:20;;;;;;;;;;;16.20;99.90;;;;;;5108668;28;19920;-74
2022/08/06 01:46:50;;;;;;;;;;;16.10;99.90;;;;;;5112112;28;19912;-74
2022/08/06 01:49:19;;;;;;;;;;;16.00;99.90;;;;;;5112685;28;20281;-78
2022/08/06 01:51:47;;;;;;;;;;;16.00;99.90;;;;;;5113295;28;19934;-75
2022/08/06 01:54:14;;;;;;;;;;;15.90;99.90;;;;;;5112373;28;19918;-74
2022/08/06 01:56:41;;;;;;;;;;;15.80;99.90;;;;;;5113712;28;19912;-74
2022/08/06 01:59:07;;;;;;;;;;;15.90;99.90;;;;;;5114729;28;19912;-74
2022/08/06 02:01:34;;;;;;;;;;;15.90;99.90;;;;;;5109140;28;20159;-74
2022/08/06 02:04:01;;;;;;;;;;;15.90;99.90;;;;;;5117796;28;19930;-73
2022/08/06 02:06:35;;;;;;;;;;;15.80;99.90;;;;;;5121405;28;20026;-75
2022/08/06 02:09:03;;;;;;;;;;;15.70;99.90;;;;;;5115351;28;19919;-74
2022/08/06 02:11:30;;;;;;;;;;;15.60;99.90;;;;;;5105466;28;19915;-75
2022/08/06 02:13:56;;;;;;;;;;;15.60;99.90;;;;;;5112161;28;19915;-75
2022/08/06 02:16:23;;;;;;;;;;;15.50;99.90;;;;;;5114146;28;19912;-75
2022/08/06 02:18:51;;;;;;;;;;;15.50;99.90;;;;;;5111386;28;19930;-75
2022/08/06 02:21:19;;;;;;;;;;;15.40;99.90;;;;;;5109153;28;19908;-79
2022/08/06 02:23:46;;;;;;;;;;;15.40;99.90;;;;;;5108687;28;20299;-75
2022/08/06 02:26:14;;;;;;;;;;;15.40;99.90;;;;;;5114190;28;19930;-75
2022/08/06 02:28:41;;;;;;;;;;;15.40;99.90;;;;;;5107945;28;19919;-74
2022/08/06 02:31:07;;;;;;;;;;;15.40;99.90;;;;;;5112151;28;19919;-75
2022/08/06 02:33:33;;;;;;;;;;;15.40;99.90;;;;;;5108029;28;19966;-75
2022/08/06 02:36:07;;;;;;;;;;;15.40;99.90;;;;;;5107928;28;19923;-75
2022/08/06 02:38:36;;;;;;;;;;;15.40;99.90;;;;;;5109090;28;20268;-76
2022/08/06 02:41:11;;;;;;;;;;;15.30;99.90;;;;;;5106978;28;19920;-75
2022/08/06 02:43:38;;;;;;;;;;;15.30;99.90;;;;;;5112536;28;19920;-74
2022/08/06 02:46:11;;;;;;;;;;;15.30;99.90;;;;;;5111604;28;19919;-75
2022/08/06 02:48:50;;;;;;;;;;;15.30;99.90;;;;;;5112556;28;19912;-74
2022/08/06 02:51:23;;;;;;;;;;;15.30;99.90;;;;;;5108177;28;19923;-77
2022/08/06 02:54:02;;;;;;;;;;;15.30;99.90;;;;;;5112558;28;19915;-73
2022/08/06 02:56:29;;;;;;;;;;;15.30;99.90;;;;;;5107812;28;19919;-73
2022/08/06 02:58:57;;;;;;;;;;;15.20;99.90;;;;;;5094853;28;19919;-73
2022/08/06 03:01:26;;;;;;;;;;;15.20;99.90;;;;;;5111652;28;20430;-73
2022/08/06 03:03:55;;;;;;;;;;;15.10;99.90;;;;;;5112877;28;19919;-73
2022/08/06 03:06:22;;;;;;;;;;;15.10;99.90;;;;;;5089528;28;19919;-73
2022/08/06 03:08:51;;;;;;;;;;;15.10;99.90;;;;;;5095012;28;19922;-73
2022/08/06 03:11:17;;;;;;;;;;;15.10;99.90;;;;;;5106498;28;19916;-78
2022/08/06 03:13:43;;;;;;;;;;;15.00;99.90;;;;;;5112141;28;20300;-73
2022/08/06 03:16:10;;;;;;;;;;;14.90;99.90;;;;;;5113436;28;20307;-74
2022/08/06 03:18:37;;;;;;;;;;;14.90;99.90;;;;;;5111252;28;20105;-74
2022/08/06 03:21:04;;;;;;;;;;;14.90;99.90;;;;;;5107600;28;19916;-74
2022/08/06 03:23:30;;;;;;;;;;;14.90;99.90;;;;;;5110792;28;19920;-74
2022/08/06 03:25:56;;;;;;;;;;;14.80;99.90;;;;;;5111255;28;19927;-73
2022/08/06 03:28:24;;;;;;;;;;;14.80;99.90;;;;;;5111577;28;19919;-74
2022/08/06 03:30:50;;;;;;;;;;;14.80;99.90;;;;;;5105521;28;20369;-74
2022/08/06 03:33:17;;;;;;;;;;;14.80;99.90;;;;;;5109913;28;20360;-78
2022/08/06 03:35:44;;;;;;;;;;;14.80;99.90;;;;;;5112536;28;19939;-74
2022/08/06 03:38:10;;;;;;;;;;;14.90;99.90;;;;;;5109669;28;19919;-73
2022/08/06 03:40:37;;;;;;;;;;;14.90;99.90;;;;;;5110148;28;20125;-74
2022/08/06 03:43:04;;;;;;;;;;;14.80;99.90;;;;;;5093387;28;19935;-74
2022/08/06 03:45:31;;;;;;;;;;;14.80;99.90;;;;;;5106236;28;19912;-76
2022/08/06 03:47:57;;;;;;;;;;;14.80;99.90;;;;;;5108524;28;19919;-73
2022/08/06 03:50:32;;;;;;;;;;;14.70;99.90;;;;;;5111245;28;20391;-75
2022/08/06 03:53:00;;;;;;;;;;;14.80;99.90;;;;;;5106433;28;20501;-73
2022/08/06 03:55:27;;;;;;;;;;;14.70;99.90;;;;;;5112199;28;19912;-73
2022/08/06 03:57:57;;;;;;;;;;;14.70;99.90;;;;;;5111908;28;19911;-74
2022/08/06 04:00:24;;;;;;;;;;;14.60;99.90;;;;;;5112647;28;19915;-74
2022/08/06 04:02:52;;;;;;;;;;;14.60;99.90;;;;;;5109069;28;19920;-74
2022/08/06 04:05:19;;;;;;;;;;;14.60;99.90;;;;;;5108467;28;20390;-77
2022/08/06 04:07:46;;;;;;;;;;;14.60;99.90;;;;;;5114423;28;19923;-74
2022/08/06 04:10:12;;;;;;;;;;;14.50;99.90;;;;;;5112099;28;19923;-74
2022/08/06 04:12:38;;;;;;;;;;;14.40;99.90;;;;;;5107993;28;19912;-74
2022/08/06 04:15:05;;;;;;;;;;;14.40;99.90;;;;;;5117660;28;19911;-75
2022/08/06 04:17:31;;;;;;;;;;;14.40;99.80;;;;;;5110751;28;20269;-74
2022/08/06 04:19:58;;;;;;;;;;;14.40;99.60;;;;;;5107261;28;20392;-74
2022/08/06 04:22:24;;;;;;;;;;;14.40;99.50;;;;;;5105898;28;19934;-74
2022/08/06 04:24:50;;;;;;;;;;;14.40;99.50;;;;;;5111093;28;20006;-74
2022/08/06 04:27:16;;;;;;;;;;;14.30;99.60;;;;;;5103536;28;20386;-73
2022/08/06 04:29:42;;;;;;;;;;;14.30;99.40;;;;;;5079069;28;19919;-74
2022/08/06 04:32:08;;;;;;;;;;;14.30;99.30;;;;;;5089991;28;19920;-74
2022/08/06 04:34:36;;;;;;;;;;;14.30;99.80;;;;;;5103530;28;19912;-74
2022/08/06 04:37:02;;;;;;;;;;;14.30;99.30;;;;;;5107492;28;20265;-73
2022/08/06 04:39:28;;;;;;;;;;;14.30;99.30;;;;;;5108213;28;19923;-74
2022/08/06 04:41:54;;;;;;;;;;;14.30;98.90;;;;;;5108721;28;19912;-74
2022/08/06 04:44:20;;;;;;;;;;;14.30;99.00;;;;;;5109327;28;19933;-74
2022/08/06 04:46:49;;;;;;;;;;;14.30;98.70;;;;;;5112274;28;19919;-74
2022/08/06 04:49:16;;;;;;;;;;;14.40;98.50;;;;;;5109879;28;20421;-74
2022/08/06 04:51:45;;;;;;;;;;;14.40;98.30;;;;;;5113051;28;19919;-75
2022/08/06 04:54:12;;;;;;;;;;;14.70;97.80;;;;;;5115713;28;19912;-76
2022/08/06 04:56:38;;;;;;;;;;;14.90;97.00;;;;;;5110797;28;19912;-75
2022/08/06 04:59:07;;;;;;;;;;;14.90;96.60;;;;;;5109801;28;19912;-74
2022/08/06 05:01:33;;;;;;;;;;;15.10;96.20;;;;;;5108399;28;19919;-74
2022/08/06 05:03:59;;;;;;;;;;;15.00;96.20;;;;;;5109162;28;19927;-73
2022/08/06 05:06:33;;;;;;;;;;;14.90;96.10;;;;;;5110010;28;19911;-74
2022/08/06 05:09:02;;;;;;;;;;;14.80;96.40;;;;;;5112428;28;20404;-73
2022/08/06 05:11:34;;;;;;;;;;;15.00;95.90;;;;;;5113404;28;19916;-74
2022/08/06 05:14:02;;;;;;;;;;;15.20;95.40;;;;;;5114785;28;19911;-75
2022/08/06 05:16:30;;;;;;;;;;;15.30;94.90;;;;;;5110468;28;19911;-74
2022/08/06 05:19:05;;;;;;;;;;;15.60;94.40;;;;;;5114821;28;19911;-74
2022/08/06 05:21:33;;;;;;;;;;;16.50;92.60;;;;;;5112951;28;19919;-74
2022/08/06 05:23:59;;;;;;;;;;;16.90;90.50;;;;;;5114203;28;19924;-74
2022/08/06 05:26:25;;;;;;;;;;;16.90;90.10;;;;;;5112814;28;19927;-74
2022/08/06 05:28:51;;;;;;;;;;;17.10;89.00;;;;;;5114109;28;19911;-75
2022/08/06 05:31:30;;;;;;;;;;;17.50;86.30;;;;;;5109058;28;19916;-79
2022/08/06 05:33:56;;;;;;;;;;;18.40;82.50;;;;;;5107206;28;19912;-74
2022/08/06 05:36:22;;;;;;;;;;;18.50;80.00;;;;;;5109965;28;19993;-74
2022/08/06 05:38:48;;;;;;;;;;;18.50;79.90;;;;;;5113177;28;19991;-74
2022/08/06 05:41:14;;;;;;;;;;;18.80;76.90;;;;;;5109623;28;19912;-75
2022/08/06 05:43:40;;;;;;;;;;;18.60;78.10;;;;;;5096476;28;19920;-78
2022/08/06 05:46:10;;;;;;;;;;;18.50;77.70;;;;;;5108256;28;19911;-74
2022/08/06 05:48:49;;;;;;;;;;;18.40;78.90;;;;;;5111975;28;20272;-73
2022/08/06 05:51:19;;;;;;;;;;;18.30;78.40;;;;;;5105262;28;20414;-75
2022/08/06 05:53:51;;;;;;;;;;;18.20;79.40;;;;;;5109574;28;19911;-75
2022/08/06 05:56:20;;;;;;;;;;;18.80;77.20;;;;;;5112574;28;20317;-79
2022/08/06 05:59:06;;;;;;;;;;;19.00;75.30;;;;;;5079320;28;19919;-75
2022/08/06 06:01:33;;;;;;;;;;;18.90;75.50;;;;;;5111785;28;19912;-75
2022/08/06 06:04:00;;;;;;;;;;;19.00;74.80;;;;;;5108684;28;20398;-74
2022/08/06 06:06:26;;;;;;;;;;;19.00;75.00;;;;;;5112203;28;20288;-74
2022/08/06 06:08:52;;;;;;;;;;;19.20;74.30;;;;;;5114325;28;20364;-74
2022/08/06 06:11:18;;;;;;;;;;;19.20;73.10;;;;;;5111244;28;20253;-80
2022/08/06 06:13:45;;;;;;;;;;;19.30;73.60;;;;;;5111140;28;19918;-73
2022/08/06 06:16:11;;;;;;;;;;;19.40;72.50;;;;;;5112200;28;19919;-75
2022/08/06 06:18:37;;;;;;;;;;;19.30;73.10;;;;;;5107117;28;19915;-74
2022/08/06 06:21:19;;;;;;;;;;;19.20;73.00;;;;;;5111442;28;20022;-75
2022/08/06 06:23:51;;;;;;;;;;;19.50;71.90;;;;;;5107380;28;19924;-74
2022/08/06 06:26:20;;;;;;;;;;;19.60;71.70;;;;;;5110646;28;19920;-74
2022/08/06 06:28:57;;;;;;;;;;;19.80;72.00;;;;;;5112938;28;19912;-74
2022/08/06 06:31:41;;;;;;;;;;;20.10;70.10;;;;;;5106870;28;19998;-77
2022/08/06 06:34:24;;;;;;;;;;;20.20;69.60;;;;;;5108773;28;19919;-81
2022/08/06 06:37:00;;;;;;;;;;;20.20;70.10;;;;;;5114052;28;19912;-74
2022/08/06 06:39:32;;;;;;;;;;;20.10;69.10;;;;;;5123462;28;19915;-76
2022/08/06 06:42:01;;;;;;;;;;;21.00;67.00;;;;;;5120343;28;19912;-75
2022/08/06 06:44:28;;;;;;;;;;;21.80;65.10;;;;;;5076408;28;19946;-74
2022/08/06 06:46:59;;;;;;;;;;;21.10;65.60;;;;;;5109606;28;19920;-74
2022/08/06 06:49:28;;;;;;;;;;;20.90;66.90;;;;;;5109984;28;20260;-75
2022/08/06 06:51:56;;;;;;;;;;;20.70;66.80;;;;;;5103922;28;20380;-78
2022/08/06 06:54:26;;;;;;;;;;;21.30;65.40;;;;;;5110726;28;19912;-76
2022/08/06 06:56:54;;;;;;;;;;;21.00;65.30;;;;;;5112158;28;20312;-74
2022/08/06 06:59:27;;;;;;;;;;;21.10;64.20;;;;;;5112148;28;20340;-75
2022/08/06 07:01:54;;;;;;;;;;;21.10;64.50;;;;;;5108625;28;19919;-74
2022/08/06 07:04:21;;;;;;;;;;;21.40;63.80;;;;;;5101304;28;19933;-77
2022/08/06 07:06:48;;;;;;;;;;;21.80;62.80;;;;;;5106372;28;19919;-74
2022/08/06 07:09:16;;;;;;;;;;;21.40;63.10;;;;;;5084374;28;20373;-75
2022/08/06 07:11:43;;;;;;;;;;;21.30;63.10;;;;;;5101838;28;19919;-74
2022/08/06 07:14:09;;;;;;;;;;;21.00;63.50;;;;;;5106121;28;19912;-74
2022/08/06 07:16:37;;;;;;;;;;;21.10;63.20;;;;;;5108461;28;19919;-75
2022/08/06 07:19:05;;;;;;;;;;;21.20;62.90;;;;;;5105583;28;19912;-74
2022/08/06 07:21:31;;;;;;;;;;;21.50;61.90;;;;;;5105202;28;19915;-74
2022/08/06 07:23:57;;;;;;;;;;;22.00;61.40;;;;;;5104163;28;20292;-74
2022/08/06 07:26:23;;;;;;;;;;;23.30;58.30;;;;;;5104350;28;19927;-75
2022/08/06 07:28:50;;;;;;;;;;;22.50;58.30;;;;;;5104572;28;19923;-75
2022/08/06 07:31:17;;;;;;;;;;;22.50;58.30;;;;;;5098780;28;19919;-78
2022/08/06 07:33:45;;;;;;;;;;;23.00;54.70;;;;;;5106090;28;19912;-75
2022/08/06 07:36:13;;;;;;;;;;;22.30;55.40;;;;;;5109477;28;19923;-76
2022/08/06 07:38:41;;;;;;;;;;;23.00;54.80;;;;;;5108399;28;19919;-79
2022/08/06 07:41:08;;;;;;;;;;;24.00;52.80;;;;;;5110786;28;19916;-76
2022/08/06 07:43:40;;;;;;;;;;;23.40;51.40;;;;;;5111412;28;19912;-75
2022/08/06 07:46:08;;;;;;;;;;;22.20;53.70;;;;;;5107499;28;20289;-79
2022/08/06 07:48:39;;;;;;;;;;;22.30;52.00;;;;;;5108076;28;20253;-75
2022/08/06 07:51:05;;;;;;;;;;;22.10;52.80;;;;;;5111831;28;19911;-76
2022/08/06 07:53:32;;;;;;;;;;;23.00;52.00;;;;;;5112510;28;19912;-76
2022/08/06 07:55:59;;;;;;;;;;;22.90;50.90;;;;;;5112802;28;19915;-77
2022/08/06 07:58:25;;;;;;;;;;;22.30;51.20;;;;;;5111458;28;19913;-77
2022/08/06 08:00:51;;;;;;;;;;;22.60;51.10;;;;;;5104918;28;19924;-78
2022/08/06 08:06:18;;;;;;;;;;;22.40;50.50;;;;;;5111806;28;20285;-79
2022/08/06 08:08:45;;;;;;;;;;;22.40;50.30;;;;;;5105872;28;20327;-77
2022/08/06 08:11:15;;;;;;;;;;;22.70;50.00;;;;;;5107655;28;19919;-76
2022/08/06 08:13:42;;;;;;;;;;;22.70;49.60;;;;;;5109076;28;19911;-78
2022/08/06 08:16:08;;;;;;;;;;;22.40;50.20;;;;;;5110006;28;19914;-76
2022/08/06 08:18:34;;;;;;;;;;;22.70;50.80;;;;;;5111692;28;20412;-78
2022/08/06 08:21:01;;;;;;;;;;;23.10;50.10;;;;;;5111137;28;19912;-77
2022/08/06 08:23:30;;;;;;;;;;;22.80;50.00;;;;;;5110935;28;19915;-78
2022/08/06 08:25:58;;;;;;;;;;;22.90;49.30;;;;;;5113715;28;19919;-78
2022/08/06 08:28:24;;;;;;;;;;;22.50;49.50;;;;;;5114024;28;19912;-78
2022/08/06 08:30:50;;;;;;;;;;;22.50;49.30;;;;;;5094735;28;19937;-75
2022/08/06 08:33:19;;;;;;;;;;;22.50;48.30;;;;;;5115067;28;19915;-77
2022/08/06 08:35:47;;;;;;;;;;;22.40;47.90;;;;;;5113675;28;20248;-77
2022/08/06 08:38:13;;;;;;;;;;;22.40;47.50;;;;;;5113581;28;19984;-75
2022/08/06 08:40:39;;;;;;;;;;;22.50;46.30;;;;;;5107631;28;19918;-77
2022/08/06 08:43:07;;;;;;;;;;;22.50;47.60;;;;;;5120600;28;20525;-75
2022/08/06 08:45:34;;;;;;;;;;;22.70;46.90;;;;;;5110040;28;19922;-77
2022/08/06 08:48:01;;;;;;;;;;;22.50;47.30;;;;;;5112983;28;19920;-77
2022/08/06 08:50:30;;;;;;;;;;;22.10;47.50;;;;;;5103604;28;19916;-77
2022/08/06 08:53:05;;;;;;;;;;;22.50;46.90;;;;;;5110235;28;20269;-77
2022/08/06 08:55:31;;;;;;;;;;;22.80;45.60;;;;;;5111075;28;20364;-78
2022/08/06 08:57:58;;;;;;;;;;;22.50;45.90;;;;;;5113836;28;19916;-76
2022/08/06 09:00:24;;;;;;;;;;;23.00;46.60;;;;;;5113382;28;19923;-79
2022/08/06 09:02:50;;;;;;;;;;;23.00;46.00;;;;;;5116079;28;20365;-79
2022/08/06 09:05:16;;;;;;;;;;;22.80;46.50;;;;;;5115728;28;19920;-81
2022/08/06 09:07:42;;;;;;;;;;;22.70;44.50;;;;;;5096938;28;19920;-78
2022/08/06 09:10:09;;;;;;;;;;;22.60;45.30;;;;;;5093937;28;20369;-79
2022/08/06 09:12:35;;;;;;;;;;;22.50;46.20;;;;;;5105099;28;20329;-77
2022/08/06 09:15:02;;;;;;;;;;;22.70;45.70;;;;;;5115380;28;20337;-76
2022/08/06 09:17:29;;;;;;;;;;;22.50;46.40;;;;;;5114361;28;19912;-76
2022/08/06 09:19:55;;;;;;;;;;;23.10;45.60;;;;;;5115753;28;19926;-76
2022/08/06 09:22:22;;;;;;;;;;;22.60;45.20;;;;;;5111152;28;19912;-75
2022/08/06 09:24:48;;;;;;;;;;;22.80;45.70;;;;;;5110816;28;20297;-76
2022/08/06 09:27:17;;;;;;;;;;;23.20;45.60;;;;;;5096486;28;19920;-76
2022/08/06 09:29:54;;;;;;;;;;;23.10;44.70;;;;;;5115717;28;19927;-77
2022/08/06 09:32:58;;;;;;;;;;;22.60;46.10;;;;;;5115142;28;19916;-75
2022/08/06 09:35:30;;;;;;;;;;;22.90;46.40;;;;;;5027057;28;19913;-76
2022/08/06 09:38:04;;;;;;;;;;;23.40;45.30;;;;;;5100573;28;19916;-77
2022/08/06 09:40:30;;;;;;;;;;;22.90;45.20;;;;;;5116017;28;19939;-80
2022/08/06 09:42:56;;;;;;;;;;;22.90;45.00;;;;;;5116219;28;19911;-80
2022/08/06 09:45:23;;;;;;;;;;;22.80;44.30;;;;;;5095485;28;19936;-88
2022/08/06 09:48:00;;;;;;;;;;;23.10;44.20;;;;;;5096946;28;19911;-82
2022/08/06 09:50:35;;;;;;;;;;;23.10;44.70;;;;;;5110461;28;19920;-82
2022/08/06 09:53:01;;;;;;;;;;;23.80;44.40;;;;;;5113460;28;19911;-82
2022/08/06 09:55:28;;;;;;;;;;;23.20;44.50;;;;;;5109503;28;19912;-83
2022/08/06 09:57:54;;;;;;;;;;;23.40;44.70;;;;;;5083619;28;19919;-80
2022/08/06 10:00:24;;;;;;;;;;;23.30;43.20;;;;;;5105721;28;19916;-79
2022/08/06 10:02:55;;;;;;;;;;;24.00;42.90;;;;;;5109086;28;20257;-82
2022/08/06 10:05:22;;;;;;;;;;;23.70;42.80;;;;;;5107242;28;20417;-81
2022/08/06 10:08:02;;;;;;;;;;;23.60;43.10;;;;;;5111332;28;19915;-83
2022/08/06 10:10:41;;;;;;;;;;;23.50;42.80;;;;;;5081880;28;19912;-80
2022/08/06 10:13:19;;;;;;;;;;;23.40;42.40;;;;;;5104608;28;19911;-83
2022/08/06 10:15:48;;;;;;;;;;;23.70;42.30;;;;;;5109633;28;19994;-80
2022/08/06 10:18:30;;;;;;;;;;;23.60;42.90;;;;;;5108596;28;19912;-83
2022/08/06 10:21:06;;;;;;;;;;;23.30;43.70;;;;;;5110714;28;19912;-80
2022/08/06 10:23:33;;;;;;;;;;;22.90;43.90;;;;;;5115047;28;20379;-85
2022/08/06 10:26:00;;;;;;;;;;;22.80;43.10;;;;;;5112512;28;20285;-84
2022/08/06 10:28:27;;;;;;;;;;;22.80;44.90;;;;;;5113964;28;20296;-83
2022/08/06 10:30:54;;;;;;;;;;;22.80;44.80;;;;;;5110187;28;19912;-85
2022/08/06 10:33:22;;;;;;;;;;;22.70;45.40;;;;;;5114715;28;20284;-85
2022/08/06 10:35:48;;;;;;;;;;;23.10;41.20;;;;;;5112937;28;19912;-82
2022/08/06 10:38:16;;;;;;;;;;;22.90;41.30;;;;;;5113555;28;19916;-81
2022/08/06 10:40:43;;;;;;;;;;;23.20;42.10;;;;;;5114237;28;19911;-82
2022/08/06 10:43:10;;;;;;;;;;;23.10;43.00;;;;;;5114369;28;19922;-83
2022/08/06 10:45:37;;;;;;;;;;;23.00;43.80;;;;;;5095783;28;20002;-87
2022/08/06 10:48:03;;;;;;;;;;;23.00;43.50;;;;;;5110801;28;19923;-82
2022/08/06 10:50:30;;;;;;;;;;;23.00;44.10;;;;;;5108366;28;19918;-81
2022/08/06 10:52:56;;;;;;;;;;;22.90;43.30;;;;;;5107585;28;19919;-80
2022/08/06 10:55:22;;;;;;;;;;;23.00;42.60;;;;;;5112338;28;20361;-80
2022/08/06 10:57:48;;;;;;;;;;;22.80;42.50;;;;;;5077288;28;19912;-79
2022/08/06 11:00:14;;;;;;;;;;;23.10;42.90;;;;;;5113949;28;19912;-80
2022/08/06 11:03:00;;;;;;;;;;;23.20;42.40;;;;;;5101237;28;19912;-83
2022/08/06 11:05:29;;;;;;;;;;;23.30;42.60;;;;;;5094583;28;19930;-83
2022/08/06 11:08:14;;;;;;;;;;;23.70;42.50;;;;;;5119324;28;19930;-81
2022/08/06 11:10:58;;;;;;;;;;;23.80;42.50;;;;;;5113509;28;19916;-85
2022/08/06 11:13:49;;;;;;;;;;;23.70;42.20;;;;;;5118046;28;19912;-87
2022/08/06 11:16:25;;;;;;;;;;;23.40;41.20;;;;;;5131949;28;19912;-82
2022/08/06 11:19:02;;;;;;;;;;;23.10;41.00;;;;;;5129418;28;20378;-80
2022/08/06 11:21:36;;;;;;;;;;;23.20;41.30;;;;;;5108820;28;19935;-82
2022/08/06 11:24:03;;;;;;;;;;;22.90;41.10;;;;;;5105270;28;19957;-81
2022/08/06 11:26:34;;;;;;;;;;;23.10;41.30;;;;;;5091051;28;19927;-81
2022/08/06 11:29:01;;;;;;;;;;;23.20;41.30;;;;;;5082814;28;19915;-83
2022/08/06 11:31:31;;;;;;;;;;;23.20;41.30;;;;;;5088856;28;19919;-83
2022/08/06 11:33:58;;;;;;;;;;;23.40;41.30;;;;;;5086756;28;19919;-82
2022/08/06 11:36:25;;;;;;;;;;;24.00;40.50;;;;;;5087004;28;19939;-81
2022/08/06 11:38:54;;;;;;;;;;;24.00;39.50;;;;;;5083926;28;19912;-81
2022/08/06 11:41:21;;;;;;;;;;;23.70;40.50;;;;;;5078790;28;19916;-78
2022/08/06 11:43:47;;;;;;;;;;;24.00;40.00;;;;;;5078316;28;19920;-86
2022/08/06 11:46:24;;;;;;;;;;;23.90;40.00;;;;;;5091807;28;19939;-79
2022/08/06 11:48:59;;;;;;;;;;;23.50;40.30;;;;;;5084492;28;19935;-84
2022/08/06 11:51:44;;;;;;;;;;;23.50;39.30;;;;;;5082736;28;19920;-86
2022/08/06 11:54:13;;;;;;;;;;;23.70;40.40;;;;;;5091094;28;19916;-81
2022/08/06 11:56:57;;;;;;;;;;;23.50;39.50;;;;;;5091375;28;19935;-83
2022/08/06 11:59:24;;;;;;;;;;;23.50;39.80;;;;;;5090027;28;19912;-79
2022/08/06 12:01:50;;;;;;;;;;;24.10;39.50;;;;;;5069688;28;19912;-79
2022/08/06 12:04:40;;;;;;;;;;;24.20;38.80;;;;;;5091492;28;19919;-82
2022/08/06 12:07:13;;;;;;;;;;;24.10;39.30;;;;;;5079237;28;19924;-80
2022/08/06 12:09:39;;;;;;;;;;;24.40;40.00;;;;;;5088599;28;19912;-82
2022/08/06 12:12:23;;;;;;;;;;;24.40;39.90;;;;;;5088463;28;19919;-80
2022/08/06 12:14:50;;;;;;;;;;;24.40;39.50;;;;;;5086350;28;20423;-81
2022/08/06 12:17:20;;;;;;;;;;;24.20;40.70;;;;;;5091112;28;19927;-79
2022/08/06 12:19:49;;;;;;;;;;;24.20;39.70;;;;;;5088815;28;20079;-81
2022/08/06 12:22:16;;;;;;;;;;;24.40;39.60;;;;;;5082459;28;20408;-80
2022/08/06 12:24:43;;;;;;;;;;;24.30;39.60;;;;;;5091058;28;19923;-81
2022/08/06 12:27:12;;;;;;;;;;;23.80;39.80;;;;;;5102680;28;19923;-83
2022/08/06 12:29:39;;;;;;;;;;;23.90;40.70;;;;;;5093141;28;20497;-80
2022/08/06 12:32:31;;;;;;;;;;;23.90;40.40;;;;;;5109822;28;19912;-79
2022/08/06 12:34:58;;;;;;;;;;;24.40;40.20;;;;;;5104758;28;19912;-80
2022/08/06 12:37:34;;;;;;;;;;;24.30;39.50;;;;;;5110383;28;19939;-79
2022/08/06 12:42:46;;;;;;;;;;;24.10;39.60;;;;;;5101348;28;20341;-81
2022/08/06 12:45:12;;;;;;;;;;;24.30;39.60;;;;;;5106798;28;19942;-79
2022/08/06 12:47:38;;;;;;;;;;;24.20;39.20;;;;;;5106408;28;19926;-80
2022/08/06 12:50:17;;;;;;;;;;;24.30;39.00;;;;;;5094341;28;19912;-81
2022/08/06 12:52:43;;;;;;;;;;;24.70;38.90;;;;;;5091993;28;20249;-81
2022/08/06 12:55:18;;;;;;;;;;;24.60;38.90;;;;;;5102320;28;19919;-78
2022/08/06 12:57:44;;;;;;;;;;;24.80;38.50;;;;;;5103766;28;19923;-79
2022/08/06 13:00:11;;;;;;;;;;;24.40;39.80;;;;;;5109384;28;19917;-81
2022/08/06 13:02:37;;;;;;;;;;;24.60;38.80;;;;;;5091958;28;19919;-79
2022/08/06 13:05:03;;;;;;;;;;;24.90;38.50;;;;;;5093948;28;20403;-80
2022/08/06 13:07:29;;;;;;;;;;;24.60;39.20;;;;;;5108282;28;19916;-80
2022/08/06 13:09:55;;;;;;;;;;;24.70;39.20;;;;;;5110103;28;19937;-80
2022/08/06 13:12:21;;;;;;;;;;;24.60;39.90;;;;;;5112672;28;19912;-81
2022/08/06 13:14:48;;;;;;;;;;;24.60;40.10;;;;;;5097008;28;19935;-80
2022/08/06 13:17:14;;;;;;;;;;;24.80;39.90;;;;;;5115715;28;19918;-84
2022/08/06 13:19:52;;;;;;;;;;;25.10;39.50;;;;;;5109454;28;19911;-83
2022/08/06 13:22:18;;;;;;;;;;;24.90;38.90;;;;;;5105229;28;19956;-85
2022/08/06 13:24:44;;;;;;;;;;;24.90;38.40;;;;;;5112000;28;19912;-82
2022/08/06 13:27:10;;;;;;;;;;;24.90;38.60;;;;;;5113987;28;19930;-84
2022/08/06 13:29:36;;;;;;;;;;;25.00;38.10;;;;;;5110619;28;20011;-81
2022/08/06 13:32:02;;;;;;;;;;;25.40;38.30;;;;;;5092657;28;19919;-79
2022/08/06 13:34:29;;;;;;;;;;;25.00;38.10;;;;;;5113631;28;20007;-81
2022/08/06 13:36:58;;;;;;;;;;;24.70;38.50;;;;;;5111020;28;20237;-82
2022/08/06 13:39:30;;;;;;;;;;;24.70;38.20;;;;;;5096383;28;19912;-79
2022/08/06 13:42:04;;;;;;;;;;;24.90;38.40;;;;;;5096172;28;19911;-80
2022/08/06 13:44:34;;;;;;;;;;;24.90;38.50;;;;;;5095767;28;19912;-82
2022/08/06 13:47:01;;;;;;;;;;;24.90;39.40;;;;;;5086478;28;19923;-81
2022/08/06 13:49:28;;;;;;;;;;;25.00;39.30;;;;;;5113918;28;20195;-81
2022/08/06 13:51:54;;;;;;;;;;;24.80;39.50;;;;;;5107478;28;20364;-80
2022/08/06 13:54:21;;;;;;;;;;;25.00;39.60;;;;;;5091325;28;19919;-80
2022/08/06 13:56:47;;;;;;;;;;;25.10;38.40;;;;;;5105179;28;19945;-80
2022/08/06 13:59:13;;;;;;;;;;;25.20;38.00;;;;;;5113198;28;19975;-81
2022/08/06 14:01:39;;;;;;;;;;;25.40;37.90;;;;;;5110938;28;20248;-81
2022/08/06 14:04:05;;;;;;;;;;;25.60;38.60;;;;;;5113614;28;19911;-80
2022/08/06 14:06:31;;;;;;;;;;;25.60;37.40;;;;;;5113680;28;20249;-80
2022/08/06 14:08:57;;;;;;;;;;;25.60;37.90;;;;;;5108988;28;20280;-81
2022/08/06 14:11:23;;;;;;;;;;;25.20;37.50;;;;;;5108162;28;19912;-81
2022/08/06 14:13:49;;;;;;;;;;;25.00;37.70;;;;;;5110131;28;19914;-83
2022/08/06 14:16:15;;;;;;;;;;;25.10;38.30;;;;;;5081633;28;20368;-81
2022/08/06 14:18:41;;;;;;;;;;;25.20;37.80;;;;;;5095103;28;19911;-81
2022/08/06 14:21:08;;;;;;;;;;;25.40;37.70;;;;;;5109463;28;19912;-80
2022/08/06 14:23:34;;;;;;;;;;;25.10;37.20;;;;;;5111963;28;19934;-81
2022/08/06 14:26:01;;;;;;;;;;;25.30;37.60;;;;;;5110556;28;19920;-81
2022/08/06 14:28:27;;;;;;;;;;;25.50;37.50;;;;;;5094395;28;19920;-80
2022/08/06 14:30:53;;;;;;;;;;;25.30;37.50;;;;;;5107405;28;20297;-80